Camp Dodge, Iowa
Current Conditions -  °F | °C
As of 9:35 PM on Friday 24 Oct 2014 (Local Time) from KIKV Reporting Station
Moderate Fog Moderate Fog  
Wind Chill: 55°   Ceiling: Unl
Heat Index: 55°   Visibility: 0mi
Dew Point: 55°   Wind: 3mph
Humidity: 100%   Direction: 150°SSE
Pressure: 29.95"   Gusts: NA
Location:  41.689°N, 93.7182°W
Report Text: KIKV 250235Z AUTO 15003KT M1/4SM FG VV000 13/13 A2995 RMK AO2
Loading
Personal Weather Stations






























Interactive Weather Map New forecast layout! Learn more

10-Day Weather Forecast

Advertisements
Track Severe Weather on mobile